createdAt,value
2018-10-07T00:01:25.892Z,4.16
2018-10-07T00:07:20.932Z,4.95
2018-10-07T00:13:15.886Z,4.31
2018-10-07T00:19:10.878Z,5.72
2018-10-07T00:25:05.892Z,4.61
2018-10-07T00:31:00.937Z,4.23
2018-10-07T00:36:55.953Z,3.97
2018-10-07T00:42:50.907Z,3.72
2018-10-07T00:48:45.944Z,5.17
2018-10-07T00:54:40.926Z,5.81
2018-10-07T01:00:35.891Z,3.27
2018-10-07T01:06:30.943Z,4.91
2018-10-07T01:12:25.909Z,3.67
2018-10-07T01:18:20.962Z,2.55
2018-10-07T01:24:15.947Z,4.86
2018-10-07T01:30:10.946Z,6.19
2018-10-07T01:36:05.911Z,4.22
2018-10-07T01:42:01.037Z,3.39
2018-10-07T01:47:55.949Z,4.5
2018-10-07T01:53:50.894Z,7.16
2018-10-07T01:59:45.904Z,3.71
2018-10-07T02:05:40.964Z,3.72
2018-10-07T02:11:35.899Z,5.18
2018-10-07T02:35:15.950Z,2.68
2018-10-07T02:35:15.963Z,5.06
2018-10-07T02:35:15.979Z,5.06
2018-10-07T02:35:15.996Z,5.06
2018-10-07T02:41:10.942Z,2.47
2018-10-07T02:47:05.931Z,2.95
2018-10-07T02:53:01.018Z,2.65
2018-10-07T02:58:55.944Z,2.2
2018-10-07T03:04:51.122Z,2.5
2018-10-07T03:10:46.022Z,9.17
2018-10-07T03:16:40.947Z,8.35
2018-10-07T03:22:35.974Z,2.91
2018-10-07T03:28:30.937Z,3.28
2018-10-07T03:34:25.938Z,2.01
2018-10-07T03:40:20.941Z,3.51
2018-10-07T03:46:15.945Z,2.18
2018-10-07T03:52:10.994Z,3.39
2018-10-07T03:58:05.979Z,2.29
2018-10-07T04:04:01.048Z,3.69
2018-10-07T04:09:55.947Z,3.91
2018-10-07T04:15:50.999Z,2.87
2018-10-07T04:21:45.943Z,2.89
2018-10-07T04:27:40.959Z,2.23
2018-10-07T04:33:35.974Z,1.63
2018-10-07T04:39:30.945Z,1.62
2018-10-07T04:45:25.984Z,2.42
2018-10-07T04:51:21.045Z,2.52
2018-10-07T04:57:15.990Z,4.95
2018-10-07T05:03:10.980Z,4.3
2018-10-07T05:09:05.959Z,3.72
2018-10-07T05:38:40.985Z,3.66
2018-10-07T05:38:41.021Z,6.55
2018-10-07T05:38:41.044Z,6.55
2018-10-07T05:38:41.087Z,6.55
2018-10-07T05:38:41.147Z,6.55
2018-10-07T05:44:36.069Z,5.45
2018-10-07T05:50:30.994Z,4.49
2018-10-07T05:56:26.075Z,4.73
2018-10-07T06:02:21.002Z,3.16
2018-10-07T06:08:15.979Z,5.24
2018-10-07T06:14:10.987Z,4.35
2018-10-07T06:20:05.966Z,4.49
2018-10-07T06:26:00.990Z,4.66
2018-10-07T06:31:55.977Z,3.06
2018-10-07T06:37:50.996Z,5.19
2018-10-07T06:43:45.970Z,15.71
2018-10-07T06:49:41.044Z,12.44
2018-10-07T06:55:36.031Z,13.16
2018-10-07T07:01:31.010Z,10.29
2018-10-07T07:07:26.069Z,10.23
2018-10-07T07:13:21.029Z,10.37
2018-10-07T07:19:15.994Z,13.99
2018-10-07T07:25:11.013Z,15.57
2018-10-07T07:31:06.010Z,16.17
2018-10-07T07:37:01.069Z,19.2
2018-10-07T07:42:56.037Z,23.07
2018-10-07T07:48:51.028Z,22.4
2018-10-07T07:54:46.007Z,15.8
2018-10-07T08:00:41.023Z,22.38
2018-10-07T08:06:36.016Z,19.01
2018-10-07T08:12:31.036Z,17.83
2018-10-07T08:36:11.018Z,20.71
2018-10-07T08:36:11.194Z,14.27
2018-10-07T08:36:11.203Z,14.27
2018-10-07T08:36:11.247Z,14.27
2018-10-07T08:42:06.060Z,16.77
2018-10-07T08:48:01.017Z,17.37
2018-10-07T08:53:56.019Z,21.95
2018-10-07T08:59:51.057Z,21.51
2018-10-07T09:05:46.045Z,20.33
2018-10-07T09:11:41.013Z,17.13
2018-10-07T09:17:36.019Z,15.31
2018-10-07T09:23:31.038Z,16.83
2018-10-07T09:29:26.011Z,13.56
2018-10-07T09:35:21.033Z,22.53
2018-10-07T09:41:16.013Z,13.77
2018-10-07T09:47:11.116Z,19.94
2018-10-07T09:53:06.003Z,13.05
2018-10-07T09:59:01.072Z,13.86
2018-10-07T10:04:56.028Z,10.7
2018-10-07T10:10:51.023Z,10.42
2018-10-07T10:16:46.113Z,9.35
2018-10-07T10:22:41.001Z,9.48
2018-10-07T10:28:36.013Z,7.34
2018-10-07T10:34:31.028Z,8.6
2018-10-07T10:40:26.035Z,6.97
2018-10-07T10:46:21.056Z,9.69
2018-10-07T10:52:16.043Z,8.81
2018-10-07T10:58:11.034Z,10.49
2018-10-07T11:04:06.057Z,9.69
2018-10-07T11:10:01.037Z,7.76
2018-10-07T11:39:36.052Z,6.31
2018-10-07T11:39:36.097Z,6
2018-10-07T11:39:36.107Z,6
2018-10-07T11:39:36.166Z,6
2018-10-07T11:45:31.052Z,5.36
2018-10-07T11:51:26.060Z,5.63
2018-10-07T11:57:21.063Z,6.53
2018-10-07T12:03:16.060Z,4.58
2018-10-07T12:09:11.083Z,8.28
2018-10-07T12:15:06.064Z,7.62
2018-10-07T12:21:01.071Z,6.79
2018-10-07T12:26:56.055Z,7.52
2018-10-07T12:32:51.071Z,5.27
2018-10-07T12:38:46.080Z,8.11
2018-10-07T12:44:41.132Z,6.5
2018-10-07T12:50:36.152Z,7.07
2018-10-07T12:56:31.104Z,6.8
2018-10-07T13:02:26.071Z,9.17
2018-10-07T13:08:21.114Z,9.56
2018-10-07T13:14:16.064Z,8.03
2018-10-07T13:20:11.089Z,8.48
2018-10-07T13:26:06.112Z,8.43
2018-10-07T13:32:01.110Z,11.57
2018-10-07T13:37:56.096Z,6.67
2018-10-07T13:43:51.163Z,8.13
2018-10-07T13:49:46.131Z,8.4
2018-10-07T13:55:41.091Z,6.67
2018-10-07T14:01:36.092Z,7.06
2018-10-07T14:07:31.104Z,7.05
2018-10-07T14:13:27.257Z,5.9
2018-10-07T14:37:06.167Z,6.3
2018-10-07T14:37:06.227Z,6.61
2018-10-07T14:37:06.238Z,6.61
2018-10-07T14:37:06.266Z,6.61
2018-10-07T15:06:41.163Z,5.77
2018-10-07T15:06:41.253Z,8.64
2018-10-07T15:06:41.270Z,8.64
2018-10-07T15:06:41.308Z,8.64
2018-10-07T15:06:41.374Z,8.64
2018-10-07T15:12:36.139Z,7.79
2018-10-07T15:18:31.132Z,7.69
2018-10-07T15:24:26.129Z,6.86
2018-10-07T15:30:21.142Z,7.07
2018-10-07T15:36:16.235Z,6.75
2018-10-07T15:42:11.156Z,5.3
2018-10-07T15:48:06.182Z,7.03
2018-10-07T15:54:01.174Z,7.39
2018-10-07T15:59:56.218Z,6.7
2018-10-07T16:05:51.133Z,5.09
2018-10-07T16:11:46.151Z,5.31
2018-10-07T16:17:41.144Z,5.53
2018-10-07T16:23:36.138Z,6.34
2018-10-07T16:29:31.157Z,5.9
2018-10-07T16:35:26.191Z,6.98
2018-10-07T16:41:21.154Z,7.24
2018-10-07T16:47:16.182Z,6.61
2018-10-07T16:53:11.144Z,6.13
2018-10-07T16:59:06.166Z,9.75
2018-10-07T17:05:01.158Z,6.37
2018-10-07T17:10:56.171Z,7.42
2018-10-07T17:16:51.163Z,7.14
2018-10-07T17:22:46.219Z,8.87
2018-10-07T18:10:06.216Z,7.64
2018-10-07T18:10:06.298Z,10.47
2018-10-07T18:10:06.300Z,10.47
2018-10-07T18:10:06.373Z,10.47
2018-10-07T18:16:01.182Z,6.41
2018-10-07T18:39:41.202Z,8.1
2018-10-07T18:39:41.321Z,8.24
2018-10-07T18:39:41.328Z,8.24
2018-10-07T18:45:36.161Z,8.18
2018-10-07T18:51:31.190Z,9.63
2018-10-07T18:57:26.177Z,7.9
2018-10-07T19:03:21.164Z,7.69
2018-10-07T19:09:16.180Z,6.91
2018-10-07T19:15:11.218Z,7.33
2018-10-07T19:21:06.333Z,7.97
2018-10-07T19:27:01.175Z,6.8
2018-10-07T19:32:56.180Z,7.41
2018-10-07T19:38:51.187Z,6.84
2018-10-07T19:44:46.346Z,6.51
2018-10-07T19:50:41.190Z,9.39
2018-10-07T19:56:36.171Z,7.51
2018-10-07T20:02:31.170Z,6.83
2018-10-07T20:08:26.174Z,7.96
2018-10-07T20:14:21.185Z,9.58
2018-10-07T20:20:16.254Z,6.7
2018-10-07T20:26:11.163Z,10.41
2018-10-07T20:32:06.185Z,10.2
2018-10-07T20:38:01.183Z,6.22
2018-10-07T20:43:56.187Z,8.17
2018-10-07T21:07:36.245Z,7.6
2018-10-07T21:07:36.276Z,7.68
2018-10-07T21:07:36.293Z,7.68
2018-10-07T21:07:36.339Z,7.68
2018-10-07T21:13:31.205Z,7.24
2018-10-07T21:19:26.191Z,7.28
2018-10-07T21:25:21.181Z,6.19
2018-10-07T21:31:16.182Z,7.2
2018-10-07T21:37:11.182Z,6.63
2018-10-07T21:43:06.194Z,7.43
2018-10-07T21:49:01.217Z,8.33
2018-10-07T21:54:56.210Z,7.85
2018-10-07T22:00:51.256Z,9.19
2018-10-07T22:06:46.218Z,8.15
2018-10-07T22:12:41.198Z,7.53
2018-10-07T22:18:36.179Z,10.25
2018-10-07T22:24:31.268Z,7.63
2018-10-07T22:30:26.223Z,12.07
2018-10-07T22:36:21.210Z,7.2
2018-10-07T22:42:16.230Z,10.48
2018-10-07T22:48:11.249Z,7.48
2018-10-07T22:54:06.241Z,8.97
2018-10-07T23:00:01.242Z,10.98
2018-10-07T23:05:56.270Z,8
2018-10-07T23:11:51.201Z,6.5
2018-10-07T23:17:46.199Z,6.59
2018-10-07T23:23:41.196Z,7.27
2018-10-07T23:29:36.467Z,7.7
2018-10-07T23:35:31.303Z,7.06
2018-10-07T23:41:26.223Z,7.02
